Time;durP1;ratioP1;P1;durP2;ratioP2;P2;SDS_P1;SDS_P2;PMS_P1;PMS_P2;Temp;Humidity;BMP_temperature;BMP_pressure;BME280_temperature;BME280_humidity;BME280_pressure;Samples;Min_cycle;Max_cycle;Signal;HPM_P1;HPM_P2
2021/08/28 00:01:20;;;;;;;11.35;7.25;;;;;;;12.20;67.47;98241.53;5033554;28;20032;-72
2021/08/28 00:03:45;;;;;;;11.80;7.07;;;;;;;12.17;67.84;98233.91;5033130;28;20049;-72
2021/08/28 00:06:11;;;;;;;11.65;7.15;;;;;;;12.16;67.32;98237.78;5033011;28;20470;-72
2021/08/28 00:08:36;;;;;;;12.82;7.57;;;;;;;12.15;67.64;98236.16;5032680;28;20076;-72
2021/08/28 00:11:01;;;;;;;11.60;9.38;;;;;;;12.17;67.47;98240.22;5032924;28;20017;-72
2021/08/28 00:13:27;;;;;;;12.00;7.93;;;;;;;12.16;67.83;98235.03;5033113;28;20029;-72
2021/08/28 00:15:52;;;;;;;9.55;7.00;;;;;;;12.17;67.60;98242.16;5016337;28;20057;-73
2021/08/28 00:18:18;;;;;;;10.32;6.55;;;;;;;12.15;68.00;98245.22;5033996;28;20406;-72
2021/08/28 00:20:44;;;;;;;10.18;5.85;;;;;;;12.12;67.81;98254.06;5034105;28;20037;-73
2021/08/28 00:23:10;;;;;;;10.30;6.70;;;;;;;12.05;68.14;98248.19;5034265;28;20057;-72
2021/08/28 00:25:36;;;;;;;8.07;6.07;;;;;;;12.03;67.66;98258.69;5034240;28;20411;-72
2021/08/28 00:28:03;;;;;;;10.93;6.28;;;;;;;12.01;67.92;98261.75;5034067;28;20025;-73
2021/08/28 00:30:28;;;;;;;10.80;6.05;;;;;;;11.99;68.14;98249.44;5034082;28;20053;-72
2021/08/28 00:32:53;;;;;;;9.82;7.38;;;;;;;11.97;67.91;98251.69;5034030;28;20036;-73
2021/08/28 00:35:19;;;;;;;10.10;6.20;;;;;;;11.97;67.98;98254.44;5033899;28;20025;-72
2021/08/28 00:37:44;;;;;;;9.13;5.72;;;;;;;11.97;67.69;98262.66;5034121;28;20029;-73
2021/08/28 00:40:10;;;;;;;10.45;7.25;;;;;;;11.98;68.25;98264.28;5033884;28;20018;-72
2021/08/28 00:42:51;;;;;;;8.98;7.15;;;;;;;11.93;67.88;98259.72;5033885;28;20393;-73
2021/08/28 00:45:18;;;;;;;10.93;7.53;;;;;;;11.86;67.83;98265.63;5033758;28;20021;-72
2021/08/28 00:47:57;;;;;;;9.73;7.07;;;;;;;11.81;68.14;98254.75;5033862;28;20018;-72
2021/08/28 00:50:26;;;;;;;10.68;6.35;;;;;;;11.81;67.58;98263.00;5033858;28;20040;-73
2021/08/28 00:52:55;;;;;;;12.10;6.70;;;;;;;11.80;68.30;98266.88;5033745;28;20075;-73
2021/08/28 00:55:25;;;;;;;11.05;6.43;;;;;;;11.78;68.26;98258.13;5033685;28;20036;-73
2021/08/28 00:57:50;;;;;;;9.45;6.95;;;;;;;11.76;67.88;98263.13;5015927;28;20025;-73
2021/08/28 01:00:17;;;;;;;10.05;7.10;;;;;;;11.69;68.21;98259.97;5033577;28;20433;-73
2021/08/28 01:02:46;;;;;;;9.00;6.50;;;;;;;11.67;68.20;98256.72;5033237;28;20064;-70
2021/08/28 01:05:24;;;;;;;12.43;7.88;;;;;;;11.62;68.43;98249.41;5033528;28;20025;-72
2021/08/28 01:08:12;;;;;;;11.30;6.65;;;;;;;11.62;68.46;98252.97;5033474;28;20025;-73
2021/08/28 01:10:42;;;;;;;10.32;6.72;;;;;;;11.62;68.53;98257.66;5033293;28;20367;-73
2021/08/28 01:13:10;;;;;;;;;;;;;;;11.63;68.83;98253.78;5034072;28;20061;-72
2021/08/28 01:15:37;;;;;;;9.80;6.97;;;;;;;11.62;68.47;98255.72;5033144;28;20046;-72
2021/08/28 01:18:04;;;;;;;10.90;6.82;;;;;;;11.61;68.96;98262.31;5032484;28;20033;-72
2021/08/28 01:20:50;;;;;;;11.18;6.28;;;;;;;11.61;69.27;98265.06;5032234;28;20064;-72
2021/08/28 01:23:18;;;;;;;10.88;7.35;;;;;;;11.66;69.22;98269.66;5032982;28;20036;-73
2021/08/28 01:25:45;;;;;;;10.98;7.05;;;;;;;11.67;68.97;98271.28;5032766;28;20033;-70
2021/08/28 01:28:12;;;;;;;10.88;7.30;;;;;;;11.70;69.15;98275.34;5032674;28;20044;-70
2021/08/28 01:30:43;;;;;;;14.93;11.90;;;;;;;11.70;69.39;98270.66;5032924;28;20033;-71
2021/08/28 01:33:10;;;;;;;13.02;9.80;;;;;;;11.69;69.02;98277.28;5032804;28;20032;-70
2021/08/28 01:35:36;;;;;;;14.55;10.88;;;;;;;11.70;68.96;98278.09;5032651;28;20026;-70
2021/08/28 01:38:03;;;;;;;15.80;11.35;;;;;;;11.69;68.92;98271.78;5032691;28;20025;-70
2021/08/28 01:40:29;;;;;;;13.43;9.85;;;;;;;11.70;68.70;98275.34;5032517;28;20080;-70
2021/08/28 01:42:56;;;;;;;11.35;8.13;;;;;;;11.71;69.02;98275.03;5033115;28;20424;-71
2021/08/28 01:45:25;;;;;;;12.10;7.93;;;;;;;11.74;68.93;98281.84;5032495;28;20108;-71
2021/08/28 01:47:52;;;;;;;12.15;7.10;;;;;;;11.72;68.77;98273.09;5032397;28;20540;-71
2021/08/28 01:50:20;;;;;;;11.23;8.07;;;;;;;11.72;69.40;98273.09;5014615;28;20026;-71
2021/08/28 01:52:47;;;;;;;16.35;10.48;;;;;;;11.72;68.66;98273.09;5032367;28;20108;-70
2021/08/28 01:55:13;;;;;;;12.13;8.35;;;;;;;11.67;68.86;98276.78;5032232;28;20026;-71
2021/08/28 01:57:38;;;;;;;10.60;7.28;;;;;;;11.61;69.04;98269.75;5032478;28;20028;-71
2021/08/28 02:00:05;;;;;;;9.75;6.78;;;;;;;11.58;68.94;98264.88;5032666;28;20022;-71
2021/08/28 02:02:30;;;;;;;10.00;7.00;;;;;;;11.55;69.29;98268.25;5032401;28;20492;-70
2021/08/28 02:04:56;;;;;;;10.63;6.78;;;;;;;11.55;68.82;98260.84;5032092;28;20049;-71
2021/08/28 02:07:28;;;;;;;9.80;6.95;;;;;;;11.50;69.54;98271.91;5032211;28;20044;-71
2021/08/28 02:10:01;;;;;;;9.30;6.35;;;;;;;11.47;68.94;98272.53;5032133;28;20072;-71
2021/08/28 02:12:32;;;;;;;9.90;6.85;;;;;;;11.50;69.11;98265.59;5032367;28;20420;-71
2021/08/28 02:15:05;;;;;;;12.45;10.48;;;;;;;11.50;68.98;98268.34;5014460;28;20482;-71
2021/08/28 02:17:35;;;;;;;12.15;9.27;;;;;;;11.47;69.31;98264.28;5014594;28;20048;-71
2021/08/28 02:20:04;;;;;;;13.30;9.77;;;;;;;11.48;68.89;98263.19;5032347;28;20037;-70
2021/08/28 02:22:37;;;;;;;13.88;9.40;;;;;;;11.51;69.81;98270.81;5032190;28;20065;-71
2021/08/28 02:25:10;;;;;;;11.00;7.82;;;;;;;11.52;69.32;98264.19;5032198;28;20095;-71
2021/08/28 02:28:04;;;;;;;12.90;8.60;;;;;;;11.54;69.32;98267.44;5032263;28;20418;-71
2021/08/28 02:30:32;;;;;;;14.07;8.07;;;;;;;11.56;69.31;98262.47;5030874;28;20045;-71
2021/08/28 02:33:02;;;;;;;11.05;7.78;;;;;;;11.57;69.33;98269.56;5033987;28;20029;-71
2021/08/28 02:35:29;;;;;;;15.88;8.05;;;;;;;11.55;68.89;98260.00;5035974;28;20041;-71
2021/08/28 02:37:57;;;;;;;15.25;10.15;;;;;;;11.55;69.60;98263.56;5036083;28;20078;-71
2021/08/28 02:40:24;;;;;;;14.63;9.70;;;;;;;11.53;69.15;98260.31;5035914;28;20101;-71
2021/08/28 02:42:50;;;;;;;15.30;10.10;;;;;;;11.44;68.91;98259.41;5035929;28;20075;-70
2021/08/28 02:45:19;;;;;;;12.05;8.23;;;;;;;11.42;68.79;98256.16;5035919;28;20036;-70
2021/08/28 02:47:46;;;;;;;11.82;8.30;;;;;;;11.39;68.86;98263.09;5035618;28;20029;-71
2021/08/28 02:50:15;;;;;;;12.63;8.15;;;;;;;11.35;68.79;98258.50;5035674;28;20029;-71
2021/08/28 02:52:44;;;;;;;12.48;7.63;;;;;;;11.31;68.95;98263.81;5035645;28;20236;-71
2021/08/28 02:55:12;;;;;;;12.75;7.10;;;;;;;11.25;68.96;98260.31;5035680;28;20355;-71
2021/08/28 02:57:39;;;;;;;12.98;7.20;;;;;;;11.31;69.47;98267.34;5035361;28;20083;-71
2021/08/28 03:00:06;;;;;;;10.57;6.85;;;;;;;11.36;69.81;98265.63;5035188;28;20026;-71
2021/08/28 03:02:33;;;;;;;11.40;7.03;;;;;;;11.36;69.45;98263.69;5035020;28;20095;-71
2021/08/28 03:04:59;;;;;;;9.90;7.38;;;;;;;11.40;69.74;98266.63;5035164;28;20120;-71
2021/08/28 03:07:24;;;;;;;11.43;9.90;;;;;;;11.40;69.34;98263.88;5035071;28;20064;-71
2021/08/28 03:09:51;;;;;;;9.88;6.88;;;;;;;11.40;69.74;98264.72;5035127;28;20057;-71
2021/08/28 03:12:17;;;;;;;10.18;7.28;;;;;;;11.41;69.38;98260.81;5035052;28;20033;-71
2021/08/28 03:14:43;;;;;;;9.15;6.38;;;;;;;11.44;69.46;98265.69;5034870;28;20053;-71
2021/08/28 03:17:11;;;;;;;9.88;7.82;;;;;;;11.38;69.49;98257.88;5034820;28;20466;-71
2021/08/28 03:19:40;;;;;;;9.60;7.00;;;;;;;11.36;69.33;98262.88;5034956;28;20099;-70
2021/08/28 03:22:08;;;;;;;11.32;7.50;;;;;;;11.31;69.48;98255.56;5034992;28;20454;-70
2021/08/28 03:24:34;;;;;;;10.00;6.82;;;;;;;11.21;69.59;98270.28;5034886;28;20033;-71
2021/08/28 03:27:00;;;;;;;10.88;6.57;;;;;;;11.05;68.97;98252.50;5035001;28;20374;-70
2021/08/28 03:29:27;;;;;;;13.20;7.20;;;;;;;11.01;68.99;98258.59;5034869;28;20100;-71
2021/08/28 03:31:53;;;;;;;10.10;6.93;;;;;;;10.95;69.02;98256.28;5034667;28;20030;-71
2021/08/28 03:34:19;;;;;;;11.23;7.20;;;;;;;10.95;69.08;98259.03;5034706;28;20022;-71
2021/08/28 03:36:45;;;;;;;13.32;8.63;;;;;;;10.92;69.42;98260.44;5034597;28;20029;-71
2021/08/28 03:39:11;;;;;;;9.68;6.65;;;;;;;10.92;69.28;98263.16;5034769;28;20034;-71
2021/08/28 03:41:39;;;;;;;10.70;6.95;;;;;;;11.01;68.95;98261.34;5034399;28;20037;-70
2021/08/28 03:44:04;;;;;;;11.35;6.97;;;;;;;11.05;69.25;98256.06;5033453;28;20099;-71
2021/08/28 03:46:32;;;;;;;10.73;7.32;;;;;;;11.10;69.79;98260.66;5034259;28;20470;-71
2021/08/28 03:48:57;;;;;;;10.27;7.28;;;;;;;11.09;69.13;98254.34;5034215;28;20474;-71
2021/08/28 03:51:22;;;;;;;12.55;7.20;;;;;;;11.03;69.53;98255.53;5034303;28;20044;-71
2021/08/28 03:53:48;;;;;;;11.30;7.07;;;;;;;11.01;69.31;98253.13;5034329;28;20496;-71
2021/08/28 03:56:13;;;;;;;11.98;5.93;;;;;;;10.92;68.79;98259.63;5034042;28;20021;-71
2021/08/28 03:58:39;;;;;;;10.82;7.20;;;;;;;10.85;69.82;98254.53;5034254;28;20052;-71
2021/08/28 04:01:04;;;;;;;11.10;6.65;;;;;;;10.86;68.79;98250.66;5033951;28;20034;-71
2021/08/28 04:03:29;;;;;;;13.45;10.50;;;;;;;10.81;69.29;98250.75;5033877;28;20083;-71
2021/08/28 04:05:55;;;;;;;14.95;9.85;;;;;;;10.81;69.43;98250.75;5033810;28;20108;-71
2021/08/28 04:08:20;;;;;;;17.50;10.50;;;;;;;10.86;69.55;98250.66;5034013;28;20064;-70
2021/08/28 04:10:46;;;;;;;12.10;8.63;;;;;;;10.89;69.52;98261.03;5033881;28;20044;-71
2021/08/28 04:13:11;;;;;;;9.55;6.00;;;;;;;10.86;69.95;98258.88;5033694;28;20079;-71
2021/08/28 04:15:37;;;;;;;9.57;5.45;;;;;;;10.84;69.18;98261.94;5033827;28;20057;-71
2021/08/28 04:18:02;;;;;;;10.15;6.03;;;;;;;10.82;69.41;98264.19;5033014;28;20490;-71
2021/08/28 04:20:28;;;;;;;10.80;6.18;;;;;;;10.81;69.60;98261.72;5033658;28;20470;-71
2021/08/28 04:22:53;;;;;;;10.20;6.68;;;;;;;10.78;69.74;98265.91;5033744;28;20030;-72
2021/08/28 04:25:18;;;;;;;10.90;6.00;;;;;;;10.76;69.97;98270.06;5033692;28;20029;-71
2021/08/28 04:27:44;;;;;;;13.45;8.27;;;;;;;10.81;70.17;98261.72;5033505;28;20064;-71
2021/08/28 04:30:10;;;;;;;13.52;9.48;;;;;;;10.84;69.78;98263.88;5033507;28;20026;-71
2021/08/28 04:32:35;;;;;;;11.52;7.47;;;;;;;10.84;70.93;98266.59;5033328;28;20509;-71
2021/08/28 04:35:01;;;;;;;12.88;7.90;;;;;;;10.83;70.20;98268.56;5033345;28;20121;-71
2021/08/28 04:37:26;;;;;;;10.63;7.20;;;;;;;10.86;71.01;98269.88;5033373;28;20026;-71
2021/08/28 04:39:52;;;;;;;9.30;5.95;;;;;;;10.89;70.42;98268.47;5033436;28;20100;-71
2021/08/28 04:42:17;;;;;;;8.73;5.32;;;;;;;10.96;70.59;98272.44;5033387;28;20043;-72
2021/08/28 04:44:43;;;;;;;11.35;5.80;;;;;;;11.00;71.05;98278.94;5033473;28;20563;-71
2021/08/28 04:47:08;;;;;;;7.60;5.25;;;;;;;11.10;70.49;98269.69;5033364;28;20017;-71
2021/08/28 04:49:34;;;;;;;10.18;5.47;;;;;;;11.21;70.62;98269.50;5033387;28;20082;-71
2021/08/28 04:51:59;;;;;;;8.63;5.90;;;;;;;11.25;70.85;98276.81;5033239;28;20033;-71
2021/08/28 04:54:25;;;;;;;7.97;5.50;;;;;;;11.28;70.42;98280.88;5032920;28;20033;-71
2021/08/28 04:56:51;;;;;;;10.68;6.45;;;;;;;11.27;70.11;98282.00;5032860;28;20547;-71
2021/08/28 04:59:16;;;;;;;9.75;6.70;;;;;;;11.27;70.16;98282.00;5032655;28;20030;-70
2021/08/28 05:01:42;;;;;;;9.48;4.97;;;;;;;11.34;70.50;98282.41;5026398;28;20700;-71
2021/08/28 05:04:07;;;;;;;8.55;5.18;;;;;;;11.41;70.55;98274.56;5013636;28;20034;-70
2021/08/28 05:06:33;;;;;;;8.32;4.70;;;;;;;11.40;70.68;98281.19;5031959;28;20051;-71
2021/08/28 05:08:59;;;;;;;8.50;4.88;;;;;;;11.40;70.56;98288.59;5032317;28;20029;-71
2021/08/28 05:11:24;;;;;;;8.02;5.45;;;;;;;11.47;70.26;98283.53;5032596;28;20386;-71
2021/08/28 05:13:50;;;;;;;8.85;5.00;;;;;;;11.54;70.16;98289.41;5032778;28;20112;-72
2021/08/28 05:16:15;;;;;;;6.03;4.43;;;;;;;11.57;70.38;98283.31;5032439;28;20053;-71
2021/08/28 05:18:41;;;;;;;7.53;4.47;;;;;;;11.59;70.36;98280.25;5032601;28;20033;-71
2021/08/28 05:21:06;;;;;;;10.57;5.20;;;;;;;11.62;69.98;98282.38;5032485;28;20029;-72
2021/08/28 05:23:31;;;;;;;8.55;5.25;;;;;;;11.64;70.22;98285.63;5032710;28;20033;-71
2021/08/28 05:25:57;;;;;;;10.82;8.13;;;;;;;11.68;70.57;98283.91;5032425;28;20112;-71
2021/08/28 05:28:23;;;;;;;9.93;7.32;;;;;;;11.67;70.20;98278.69;5032372;28;20087;-71
2021/08/28 05:30:48;;;;;;;9.18;6.18;;;;;;;11.68;70.25;98277.56;5014536;28;20056;-70
2021/08/28 05:33:14;;;;;;;9.93;5.32;;;;;;;11.72;70.01;98282.16;5032708;28;20115;-70
2021/08/28 05:35:41;;;;;;;8.95;6.30;;;;;;;11.78;70.25;98274.63;5027032;28;20369;-69
2021/08/28 05:38:06;;;;;;;9.13;4.90;;;;;;;11.79;69.83;98276.25;5024536;28;20116;-70
2021/08/28 05:40:32;;;;;;;9.57;5.82;;;;;;;11.81;70.24;98270.44;5031515;28;20108;-69
2021/08/28 05:42:57;;;;;;;10.02;5.10;;;;;;;11.84;70.16;98273.38;5030881;28;20036;-70
2021/08/28 05:45:23;;;;;;;8.45;4.85;;;;;;;11.87;70.35;98271.94;5023691;28;20470;-70
2021/08/28 05:47:48;;;;;;;9.23;5.13;;;;;;;11.89;70.41;98272.44;4993498;28;20026;-70
2021/08/28 05:50:14;;;;;;;7.88;5.25;;;;;;;11.95;70.48;98270.41;5030219;28;20025;-69
2021/08/28 05:52:39;;;;;;;9.65;5.88;;;;;;;12.01;70.38;98272.75;5031291;28;20072;-69
2021/08/28 05:55:10;;;;;;;7.97;5.03;;;;;;;12.08;70.64;98275.06;5030847;28;20522;-70
2021/08/28 05:57:36;;;;;;;6.88;4.63;;;;;;;12.13;70.20;98272.19;4999949;28;20033;-71
2021/08/28 06:00:01;;;;;;;7.32;4.30;;;;;;;12.25;70.65;98273.59;5011572;28;20033;-70
2021/08/28 06:02:26;;;;;;;7.20;4.57;;;;;;;12.36;70.65;98284.03;5011485;28;20125;-69
2021/08/28 06:04:52;;;;;;;7.15;4.38;;;;;;;12.48;70.81;98282.66;5002082;28;20067;-69
2021/08/28 06:07:17;;;;;;;9.35;4.25;;;;;;;12.61;70.81;98283.69;5028621;28;20029;-70
2021/08/28 06:09:43;;;;;;;11.02;5.50;;;;;;;12.69;70.55;98279.38;5035339;28;20048;-70
2021/08/28 06:12:08;;;;;;;10.15;5.93;;;;;;;12.73;70.23;98278.44;5034509;28;20072;-70
2021/08/28 06:14:33;;;;;;;11.05;5.18;;;;;;;12.84;70.42;98286.44;5036450;28;20099;-70
2021/08/28 06:16:59;;;;;;;10.98;4.78;;;;;;;12.93;70.39;98279.00;5038474;28;20033;-70
2021/08/28 06:19:24;;;;;;;9.05;5.40;;;;;;;12.98;70.49;98287.13;5039010;28;20171;-70
2021/08/28 06:21:50;;;;;;;8.57;6.68;;;;;;;13.04;70.02;98280.38;5038252;28;20474;-70
2021/08/28 06:24:15;;;;;;;8.30;4.70;;;;;;;13.14;70.32;98275.72;5038381;28;20033;-70
2021/08/28 06:26:40;;;;;;;7.22;4.45;;;;;;;13.20;70.24;98279.97;5038357;28;20060;-70
2021/08/28 06:29:06;;;;;;;8.68;5.00;;;;;;;13.28;70.10;98279.16;5037768;28;20528;-70
2021/08/28 06:31:31;;;;;;;8.73;4.38;;;;;;;13.32;69.80;98273.84;5038823;28;20112;-71
2021/08/28 06:33:57;;;;;;;6.60;3.83;;;;;;;13.38;69.90;98278.06;5040993;28;20052;-70
2021/08/28 06:36:22;;;;;;;6.00;3.90;;;;;;;13.45;69.95;98283.16;5041289;28;20225;-69
2021/08/28 06:38:48;;;;;;;7.65;4.13;;;;;;;13.53;70.00;98271.34;5022712;28;20025;-70
2021/08/28 06:41:13;;;;;;;5.15;3.22;;;;;;;13.63;70.11;98278.50;5038234;28;20036;-69
2021/08/28 06:43:39;;;;;;;6.40;3.60;;;;;;;13.70;69.81;98271.34;5037811;28;20033;-69
2021/08/28 06:46:04;;;;;;;7.88;3.30;;;;;;;13.77;69.74;98275.59;5038179;28;20037;-69
2021/08/28 06:48:29;;;;;;;5.85;3.35;;;;;;;13.83;69.49;98275.13;5038455;28;20132;-70
2021/08/28 06:50:55;;;;;;;5.07;3.20;;;;;;;13.93;69.31;98275.94;5037868;28;20028;-69
2021/08/28 06:53:20;;;;;;;6.88;3.67;;;;;;;14.02;69.49;98273.19;5036885;28;20029;-70
2021/08/28 06:55:45;;;;;;;5.25;3.20;;;;;;;14.10;69.43;98273.19;5034953;28;20116;-70
2021/08/28 06:58:11;;;;;;;5.82;2.97;;;;;;;14.21;69.46;98278.38;5037599;28;20393;-69
2021/08/28 07:00:36;;;;;;;5.90;3.08;;;;;;;14.27;69.26;98269.63;5020356;28;20089;-70
2021/08/28 07:03:02;;;;;;;7.30;3.28;;;;;;;14.34;68.78;98265.56;5039559;28;20039;-69
2021/08/28 07:05:27;;;;;;;6.00;2.97;;;;;;;14.39;68.50;98265.41;5038012;28;20500;-69
2021/08/28 07:07:53;;;;;;;6.95;3.17;;;;;;;14.49;68.95;98265.03;5037572;28;20029;-70
2021/08/28 07:10:18;;;;;;;6.15;3.33;;;;;;;14.60;68.52;98268.28;5037392;28;20036;-69
2021/08/28 07:12:44;;;;;;;6.97;3.85;;;;;;;14.67;68.45;98262.25;5037879;28;20036;-69
2021/08/28 07:15:10;;;;;;;11.52;4.10;;;;;;;14.74;68.29;98259.84;5037225;28;20599;-69
2021/08/28 07:17:36;;;;;;;8.43;4.40;;;;;;;14.82;68.39;98260.94;5037714;28;20467;-69
2021/08/28 07:20:03;;;;;;;8.52;4.38;;;;;;;14.91;68.13;98260.91;5034784;28;20060;-69
2021/08/28 07:22:29;;;;;;;8.18;4.57;;;;;;;15.00;68.17;98269.97;5037676;28;20037;-69
2021/08/28 07:24:54;;;;;;;8.10;3.90;;;;;;;15.08;67.88;98260.84;5036509;28;20025;-69
2021/08/28 07:27:23;;;;;;;9.20;4.00;;;;;;;15.14;67.93;98262.28;5036968;28;20509;-68
2021/08/28 07:29:50;;;;;;;8.23;4.25;;;;;;;15.21;68.19;98260.97;5037272;28;20026;-69
2021/08/28 07:32:16;;;;;;;6.22;3.53;;;;;;;15.24;67.25;98265.84;5037554;28;20030;-68
2021/08/28 07:34:42;;;;;;;6.78;3.58;;;;;;;15.27;67.84;98265.97;5037234;28;20122;-69
2021/08/28 07:37:07;;;;;;;8.10;4.30;;;;;;;15.35;67.48;98266.25;5037130;28;20390;-69
2021/08/28 07:39:34;;;;;;;7.32;4.10;;;;;;;15.37;66.98;98266.75;5036892;28;20033;-68
2021/08/28 07:42:00;;;;;;;7.57;4.63;;;;;;;15.36;66.63;98274.22;5036524;28;20134;-70
2021/08/28 07:44:25;;;;;;;9.13;4.13;;;;;;;15.35;66.55;98278.13;5037307;28;20028;-70
2021/08/28 07:46:53;;;;;;;6.07;3.03;;;;;;;15.40;66.64;98274.38;5036872;28;20304;-70
2021/08/28 07:49:18;;;;;;;4.35;2.28;;;;;;;15.42;66.49;98274.84;5036615;28;20116;-70
2021/08/28 07:51:44;;;;;;;5.53;3.17;;;;;;;15.43;66.54;98277.28;5036916;28;20060;-70
2021/08/28 07:54:09;;;;;;;5.78;2.90;;;;;;;15.44;66.45;98275.31;5035936;28;20036;-68
2021/08/28 07:56:35;;;;;;;7.20;3.70;;;;;;;15.42;66.13;98272.09;5036910;28;20448;-70
2021/08/28 07:59:00;;;;;;;6.03;2.97;;;;;;;15.44;65.96;98276.13;5036935;28;20497;-69
2021/08/28 08:01:25;;;;;;;4.93;2.67;;;;;;;15.48;65.89;98279.84;5037065;28;20381;-68
2021/08/28 08:03:51;;;;;;;5.47;2.70;;;;;;;15.53;66.19;98275.28;5037611;28;20093;-70
2021/08/28 08:06:16;;;;;;;4.60;2.50;;;;;;;15.56;65.44;98277.38;5016390;28;20474;-70
2021/08/28 08:08:42;;;;;;;4.63;2.70;;;;;;;15.55;65.77;98279.31;5036384;28;20032;-70
2021/08/28 08:11:07;;;;;;;3.72;2.58;;;;;;;15.54;65.67;98272.16;5034497;28;20030;-69
2021/08/28 08:13:32;;;;;;;3.95;2.33;;;;;;;15.58;65.76;98275.88;5035053;28;20044;-67
2021/08/28 08:15:58;;;;;;;3.97;2.20;;;;;;;15.63;65.65;98277.66;5032391;28;20045;-68
2021/08/28 08:18:23;;;;;;;4.07;2.20;;;;;;;15.65;65.65;98269.03;5031990;28;20108;-68
2021/08/28 08:20:49;;;;;;;2.95;1.90;;;;;;;15.74;65.94;98269.78;5032201;28;20049;-68
2021/08/28 08:23:15;;;;;;;5.00;2.00;;;;;;;15.87;65.47;98276.22;5031284;28;20396;-68
2021/08/28 08:25:40;;;;;;;5.00;2.22;;;;;;;15.92;65.83;98273.25;5031385;28;20021;-68
2021/08/28 08:28:05;;;;;;;3.58;2.17;;;;;;;15.94;64.87;98276.50;5031963;28;20029;-68
2021/08/28 08:30:31;;;;;;;4.25;2.20;;;;;;;15.99;65.34;98264.41;5031707;28;20026;-68
2021/08/28 08:32:57;;;;;;;4.13;2.22;;;;;;;16.06;64.61;98267.47;5032021;28;20071;-68
2021/08/28 08:35:22;;;;;;;3.10;1.83;;;;;;;16.08;64.03;98262.41;5032284;28;20100;-69
2021/08/28 08:37:48;;;;;;;3.47;2.35;;;;;;;16.13;64.28;98278.81;5032067;28;20478;-68
2021/08/28 08:40:14;;;;;;;3.85;1.98;;;;;;;16.20;64.16;98269.94;5032180;28;20087;-69
2021/08/28 08:42:40;;;;;;;3.97;1.80;;;;;;;16.26;64.22;98267.81;5031901;28;20033;-69
2021/08/28 08:45:06;;;;;;;2.63;2.10;;;;;;;16.34;63.91;98273.25;5031894;28;20033;-69
2021/08/28 08:47:35;;;;;;;3.35;1.80;;;;;;;16.36;63.83;98265.44;5031943;28;20057;-69
2021/08/28 08:50:01;;;;;;;2.55;1.50;;;;;;;16.41;63.96;98272.69;5031834;28;20017;-68
2021/08/28 08:52:29;;;;;;;3.03;1.63;;;;;;;16.48;63.70;98270.19;5031872;28;20022;-71
2021/08/28 08:54:56;;;;;;;2.90;1.60;;;;;;;16.56;63.27;98274.00;5032192;28;20429;-70
2021/08/28 08:57:21;;;;;;;4.50;1.83;;;;;;;16.62;63.55;98269.09;5029324;28;20041;-72
2021/08/28 08:59:47;;;;;;;2.55;1.80;;;;;;;16.70;63.37;98268.19;5032855;28;20144;-71
2021/08/28 09:02:12;;;;;;;3.63;2.55;;;;;;;16.81;63.24;98272.13;5015660;28;20030;-70
2021/08/28 09:04:38;;;;;;;4.20;1.80;;;;;;;16.91;63.02;98281.94;5033516;28;20025;-71
2021/08/28 09:07:04;;;;;;;2.47;1.80;;;;;;;16.99;62.91;98279.47;5032438;28;20026;-71
2021/08/28 09:09:30;;;;;;;2.47;2.03;;;;;;;17.06;62.41;98282.47;5032010;28;20022;-71
2021/08/28 09:12:09;;;;;;;3.80;1.92;;;;;;;17.14;62.39;98278.81;5031479;28;20022;-70
2021/08/28 09:14:35;;;;;;;3.10;1.83;;;;;;;17.27;62.55;98287.94;5030752;28;20041;-70
2021/08/28 09:17:21;;;;;;;4.47;1.90;;;;;;;17.38;62.45;98289.09;5031365;28;20163;-71
2021/08/28 09:19:48;;;;;;;3.92;2.17;;;;;;;17.51;62.10;98287.13;5031740;28;20074;-71
2021/08/28 09:22:23;;;;;;;4.05;3.50;;;;;;;17.56;62.21;98286.91;5031716;28;20782;-71
2021/08/28 09:24:49;;;;;;;2.67;2.45;;;;;;;17.63;61.67;98285.53;5031272;28;20032;-72
2021/08/28 09:27:41;;;;;;;2.78;2.15;;;;;;;17.70;61.53;98281.00;5031464;28;20030;-71
2021/08/28 09:30:23;;;;;;;4.80;2.50;;;;;;;17.78;61.54;98293.13;5029100;28;20037;-72
2021/08/28 09:32:49;;;;;;;4.53;2.40;;;;;;;17.88;61.18;98286.31;5013411;28;20033;-72
2021/08/28 09:35:15;;;;;;;2.90;2.20;;;;;;;18.01;61.02;98281.56;5030858;28;20065;-72
2021/08/28 09:37:42;;;;;;;3.35;2.10;;;;;;;18.06;60.77;98291.59;5030967;28;20105;-71
2021/08/28 09:40:08;;;;;;;2.88;1.50;;;;;;;18.17;60.07;98280.81;5030816;28;20025;-71
2021/08/28 09:42:34;;;;;;;2.10;1.60;;;;;;;18.14;59.62;98287.88;5030009;28;20045;-70
2021/08/28 09:45:08;;;;;;;3.25;1.75;;;;;;;18.20;59.70;98282.91;5031174;28;20025;-70
2021/08/28 09:47:34;;;;;;;4.97;1.70;;;;;;;18.26;59.93;98281.50;5013273;28;20031;-69
2021/08/28 09:49:59;;;;;;;1.88;1.58;;;;;;;18.35;59.25;98284.09;5030558;28;20022;-70
2021/08/28 09:52:26;;;;;;;2.75;1.35;;;;;;;18.37;59.20;98279.84;5030652;28;20021;-70
2021/08/28 09:54:55;;;;;;;2.95;1.30;;;;;;;18.43;59.16;98278.44;5030908;28;20038;-70
2021/08/28 09:57:27;;;;;;;1.77;1.13;;;;;;;18.50;58.82;98272.25;5012638;28;20362;-71
2021/08/28 09:59:57;;;;;;;1.50;1.13;;;;;;;18.54;58.48;98275.94;5029446;28;20495;-69
2021/08/28 10:02:22;;;;;;;2.22;1.20;;;;;;;18.57;58.48;98278.03;5028053;28;20037;-70
2021/08/28 10:04:56;;;;;;;1.80;1.20;;;;;;;18.62;58.48;98273.38;5030576;28;20288;-71
2021/08/28 10:07:28;;;;;;;1.27;1.05;;;;;;;18.60;57.78;98270.94;5012368;28;20108;-70
2021/08/28 10:10:03;;;;;;;1.20;1.10;;;;;;;18.63;58.13;98270.22;5031391;28;20026;-70
2021/08/28 10:12:31;;;;;;;2.53;1.30;;;;;;;18.67;57.96;98271.13;5026968;28;20525;-71
2021/08/28 10:14:58;;;;;;;2.10;0.93;;;;;;;18.70;58.02;98270.44;5030365;28;20088;-70
2021/08/28 10:17:24;;;;;;;1.70;1.35;;;;;;;18.80;58.29;98257.97;5014192;28;20276;-70
2021/08/28 10:19:52;;;;;;;2.53;1.13;;;;;;;18.88;58.27;98267.34;5023922;28;20441;-70
2021/08/28 10:22:30;;;;;;;2.72;1.90;;;;;;;18.93;57.83;98260.69;5022224;28;20034;-71
2021/08/28 10:24:58;;;;;;;2.00;1.40;;;;;;;18.96;57.63;98260.00;5010849;28;20026;-71
2021/08/28 10:27:27;;;;;;;2.75;1.60;;;;;;;19.01;56.76;98268.88;5011135;28;20080;-71
2021/08/28 10:29:53;;;;;;;2.33;1.40;;;;;;;18.99;56.60;98271.22;5029332;28;20123;-71
2021/08/28 10:32:20;;;;;;;2.10;1.40;;;;;;;18.99;56.80;98271.22;5030916;28;20090;-72
2021/08/28 10:34:48;;;;;;;2.70;1.90;;;;;;;18.97;56.30;98267.97;5013032;28;20030;-71
2021/08/28 10:37:13;;;;;;;7.15;3.45;;;;;;;18.95;56.58;98266.69;5030652;28;20425;-69
2021/08/28 10:39:40;;;;;;;2.75;1.60;;;;;;;18.97;56.50;98267.19;5030924;28;20060;-70
2021/08/28 10:42:08;;;;;;;1.75;1.20;;;;;;;19.01;56.50;98265.31;5030286;28;20048;-70
2021/08/28 10:44:35;;;;;;;1.75;0.98;;;;;;;19.04;56.40;98275.72;5012983;28;20048;-71
2021/08/28 10:47:14;;;;;;;3.33;1.20;;;;;;;19.00;56.13;98275.59;5030445;28;20014;-69
2021/08/28 10:50:06;;;;;;;2.65;1.40;;;;;;;19.09;55.67;98275.44;5030813;28;20037;-70
2021/08/28 10:52:35;;;;;;;1.58;1.08;;;;;;;19.14;55.88;98274.38;5012937;28;20029;-70
2021/08/28 10:55:09;;;;;;;;;;;;;;;19.25;56.11;98269.88;5034243;28;20033;-70
2021/08/28 10:57:35;;;;;;;1.80;0.90;;;;;;;19.34;55.87;98267.75;5016283;28;20320;-70
2021/08/28 11:00:03;;;;;;;2.97;1.42;;;;;;;19.48;56.05;98266.44;5035034;28;20037;-71
2021/08/28 11:02:49;;;;;;;3.75;1.65;;;;;;;19.59;55.77;98267.53;5017291;28;20057;-73
2021/08/28 11:05:16;;;;;;;2.60;1.30;;;;;;;19.71;55.54;98263.81;5035152;28;20028;-72
2021/08/28 11:07:42;;;;;;;2.10;1.10;;;;;;;19.82;54.69;98261.25;5035193;28;20052;-71
2021/08/28 11:10:18;;;;;;;2.75;1.10;;;;;;;19.86;55.05;98266.94;5035049;28;20474;-72
2021/08/28 11:12:52;;;;;;;2.38;0.70;;;;;;;19.91;54.76;98270.25;5035035;28;20385;-71
2021/08/28 11:15:27;;;;;;;4.18;1.70;;;;;;;19.97;54.97;98273.56;5034855;28;20042;-71
2021/08/28 11:17:57;;;;;;;3.00;1.10;;;;;;;19.98;53.69;98274.38;5034957;28;20029;-71
2021/08/28 11:20:26;;;;;;;3.13;1.48;;;;;;;19.98;53.55;98277.94;5016964;28;20035;-70
2021/08/28 11:22:52;;;;;;;;;;;;;;;20.00;54.27;98274.81;5035497;28;20090;-71
2021/08/28 11:25:22;;;;;;;2.42;1.42;;;;;;;19.99;54.17;98273.19;5034687;28;19913;-68
2021/08/28 11:27:55;;;;;;;2.85;1.55;;;;;;;19.99;54.28;98276.00;5035465;28;20049;-69
2021/08/28 11:30:46;;;;;;;2.95;1.45;;;;;;;19.93;54.16;98278.25;5034821;28;20112;-70
2021/08/28 11:33:24;;;;;;;3.55;1.70;;;;;;;19.86;53.75;98278.84;5034397;28;20521;-70